Time;durP1;ratioP1;P1;durP2;ratioP2;P2;SDS_P1;SDS_P2;PMS_P1;PMS_P2;Temp;Humidity;BMP_temperature;BMP_pressure;BME280_temperature;BME280_humidity;BME280_pressure;Samples;Min_cycle;Max_cycle;Signal;HPM_P1;HPM_P2
2020/12/13 00:00:32;;;;;;;35.88;13.65;;;;;;;5.91;100.00;100341.00;1798640;79;21195;-56
2020/12/13 00:03:00;;;;;;;42.35;14.35;;;;;;;5.92;100.00;100336.10;1776661;79;21114;-57
2020/12/13 00:05:29;;;;;;;33.90;13.53;;;;;;;5.94;100.00;100332.95;1778565;80;21106;-56
2020/12/13 00:07:56;;;;;;;43.40;13.50;;;;;;;5.95;100.00;100332.04;1778501;80;21035;-57
2020/12/13 00:10:24;;;;;;;43.02;13.00;;;;;;;5.95;100.00;100337.36;1778561;80;21071;-56
2020/12/13 00:12:52;;;;;;;43.15;13.18;;;;;;;5.94;100.00;100330.29;1778499;80;22104;-57
2020/12/13 00:15:21;;;;;;;39.75;13.48;;;;;;;5.94;100.00;100330.29;1778503;80;21016;-57
2020/12/13 00:17:48;;;;;;;34.18;13.25;;;;;;;5.94;100.00;100322.75;1778465;80;21146;-57
2020/12/13 00:20:16;;;;;;;35.23;13.53;;;;;;;5.93;100.00;100317.90;1778476;80;21052;-56
2020/12/13 00:22:43;;;;;;;42.93;13.55;;;;;;;5.94;100.00;100315.66;1778431;80;21059;-56
2020/12/13 00:25:11;;;;;;;36.17;13.95;;;;;;;5.94;100.00;100319.65;1778448;80;21363;-56
2020/12/13 00:27:40;;;;;;;39.30;13.25;;;;;;;5.95;100.00;100321.83;1778508;80;21138;-56
2020/12/13 00:30:07;;;;;;;31.93;12.75;;;;;;;5.95;100.00;100322.73;1778472;80;21189;-56
2020/12/13 00:32:35;;;;;;;35.52;13.68;;;;;;;5.95;100.00;100321.83;1778532;80;21074;-56
2020/12/13 00:35:03;;;;;;;38.10;13.62;;;;;;;5.91;100.00;100337.02;1778464;80;20935;-57
2020/12/13 00:37:30;;;;;;;33.23;14.05;;;;;;;5.88;100.00;100339.75;1824922;77;21670;-56
2020/12/13 00:39:58;;;;;;;36.13;13.20;;;;;;;5.87;100.00;100341.98;1770708;80;21153;-56
2020/12/13 00:42:25;;;;;;;34.08;14.58;;;;;;;5.87;100.00;100344.65;1802233;79;21078;-56
2020/12/13 00:44:54;;;;;;;40.43;13.43;;;;;;;5.88;100.00;100342.41;1751452;81;21530;-55
2020/12/13 00:47:21;;;;;;;38.58;14.38;;;;;;;5.90;100.00;100351.23;1802403;79;21682;-56
2020/12/13 00:49:49;;;;;;;43.33;15.05;;;;;;;5.87;100.00;100360.61;1770889;81;23669;-56
2020/12/13 00:52:16;;;;;;;42.65;14.43;;;;;;;5.84;100.00;100361.98;1802246;79;21491;-56
2020/12/13 00:54:44;;;;;;;32.80;14.20;;;;;;;5.79;100.00;100350.13;1802212;79;21137;-56
2020/12/13 00:57:12;;;;;;;33.45;12.93;;;;;;;5.79;100.00;100334.61;1802132;79;21126;-56
2020/12/13 00:59:40;;;;;;;36.10;13.60;;;;;;;5.77;100.00;100315.16;1802256;79;20991;-56
2020/12/13 01:02:07;;;;;;;38.98;14.20;;;;;;;5.76;100.00;100312.07;1773905;79;21441;-55
2020/12/13 01:04:35;;;;;;;36.35;15.00;;;;;;;5.77;100.00;100319.14;1842944;77;20972;-54
2020/12/13 01:07:04;;;;;;;39.50;13.60;;;;;;;5.77;100.00;100309.83;1796229;79;21118;-55
2020/12/13 01:09:32;;;;;;;36.45;14.65;;;;;;;5.78;100.00;100318.23;1842574;77;20964;-56
2020/12/13 01:11:59;;;;;;;35.55;13.18;;;;;;;5.77;100.00;100307.17;1796190;79;21093;-56
2020/12/13 01:14:28;;;;;;;35.80;13.88;;;;;;;5.76;100.00;100301.43;1842906;77;21362;-56
2020/12/13 01:16:56;;;;;;;35.65;13.70;;;;;;;5.77;100.00;100311.16;1796174;79;21074;-56
2020/12/13 01:19:23;;;;;;;28.42;12.75;;;;;;;5.77;100.00;100305.84;1842927;77;21043;-56
2020/12/13 01:21:51;;;;;;;35.63;12.50;;;;;;;5.77;100.00;100320.47;1796139;79;21600;-56
2020/12/13 01:24:19;;;;;;;36.20;13.90;;;;;;;5.75;100.00;100327.17;1842966;77;21083;-55
2020/12/13 01:26:46;;;;;;;30.63;12.80;;;;;;;5.76;100.00;100317.39;1796169;79;21377;-55
2020/12/13 01:29:14;;;;;;;32.75;13.28;;;;;;;5.76;100.00;100314.73;1842861;77;20929;-55
2020/12/13 01:31:42;;;;;;;33.73;13.35;;;;;;;5.73;100.00;100323.20;1796282;79;21055;-56
2020/12/13 01:34:09;;;;;;;29.80;12.82;;;;;;;5.73;100.00;100317.88;1842836;77;20991;-55
2020/12/13 01:36:37;;;;;;;41.15;13.98;;;;;;;5.73;100.00;100312.56;1796953;79;21129;-57
2020/12/13 01:39:04;;;;;;;44.67;14.00;;;;;;;5.74;100.00;100330.27;1845222;77;21318;-56
2020/12/13 01:41:32;;;;;;;42.65;14.03;;;;;;;5.74;100.00;100315.64;1798413;79;20955;-56
2020/12/13 01:44:03;;;;;;;32.60;13.13;;;;;;;5.76;100.00;100308.97;1845183;77;21091;-56
2020/12/13 01:46:31;;;;;;;37.48;13.40;;;;;;;5.76;100.00;100314.73;1845406;77;21566;-56
2020/12/13 01:49:03;;;;;;;34.48;13.10;;;;;;;5.72;100.00;100318.80;1798541;79;22041;-56
2020/12/13 01:51:50;;;;;;;36.17;13.60;;;;;;;5.71;100.00;100321.03;1845233;77;21184;-55
2020/12/13 01:54:14;;;;;;;39.18;13.45;;;;;;;5.69;100.00;100314.87;1844728;77;21656;-56
2020/12/13 01:56:47;;;;;;;40.20;13.88;;;;;;;5.70;100.00;100313.07;1845234;77;21150;-56
2020/12/13 01:59:17;;;;;;;36.70;14.38;;;;;;;5.69;100.00;100316.20;1844176;77;21085;-56
2020/12/13 02:01:49;;;;;;;31.62;13.20;;;;;;;5.72;100.00;100314.80;1798440;79;21042;-56
2020/12/13 02:04:20;;;;;;;40.20;15.68;;;;;;;5.73;100.00;100308.58;1841330;77;21145;-56
2020/12/13 02:06:53;;;;;;;33.98;12.98;;;;;;;5.72;100.00;100310.81;1795490;80;21110;-56
2020/12/13 02:09:21;;;;;;;31.50;13.35;;;;;;;5.70;100.00;100305.98;1842057;77;21569;-56
2020/12/13 02:11:50;;;;;;;32.13;12.95;;;;;;;5.72;100.00;100320.12;1795307;80;21137;-56
2020/12/13 02:14:18;;;;;;;31.20;12.50;;;;;;;5.72;100.00;100319.23;1841972;77;21173;-56
2020/12/13 02:16:51;;;;;;;35.17;13.30;;;;;;;5.73;100.00;100319.21;1842068;77;21429;-55
2020/12/13 02:19:19;;;;;;;31.57;13.80;;;;;;;5.71;100.00;100314.38;1795255;80;21160;-55
2020/12/13 02:21:48;;;;;;;36.50;13.32;;;;;;;5.72;100.00;100313.91;1841983;77;21150;-55
2020/12/13 02:24:16;;;;;;;37.33;13.75;;;;;;;5.71;100.00;100294.44;1841961;77;21059;-55
2020/12/13 02:26:44;;;;;;;32.45;13.18;;;;;;;5.71;100.00;100313.05;1795394;80;21078;-56
2020/12/13 02:29:13;;;;;;;40.33;14.78;;;;;;;5.71;100.00;100315.71;1841975;77;21367;-56
2020/12/13 02:31:40;;;;;;;37.03;13.75;;;;;;;5.70;100.00;100321.95;1795539;80;21161;-56
2020/12/13 02:34:08;;;;;;;31.90;13.83;;;;;;;5.68;100.00;100317.55;1814364;77;21451;-55
2020/12/13 02:36:36;;;;;;;36.58;14.55;;;;;;;5.66;100.00;100315.39;1795341;80;21109;-56
2020/12/13 02:39:06;;;;;;;36.53;14.18;;;;;;;5.67;100.00;100323.78;1842050;77;21114;-55
2020/12/13 02:41:34;;;;;;;37.30;15.25;;;;;;;5.66;100.00;100325.59;1795408;80;21506;-55
2020/12/13 02:44:02;;;;;;;34.00;14.13;;;;;;;5.64;100.00;100314.11;1841903;77;21093;-55
2020/12/13 02:46:29;;;;;;;34.40;14.63;;;;;;;5.64;100.00;100315.44;1841917;77;21095;-56
2020/12/13 02:48:57;;;;;;;36.33;14.80;;;;;;;5.65;100.00;100315.86;1795387;79;21070;-55
2020/12/13 02:51:24;;;;;;;35.50;13.93;;;;;;;5.64;100.00;100327.41;1842121;77;21096;-55
2020/12/13 02:53:52;;;;;;;30.90;12.85;;;;;;;5.64;100.00;100327.41;1842130;77;21374;-55
2020/12/13 02:56:20;;;;;;;39.55;14.73;;;;;;;5.64;100.00;100316.77;1842044;77;20976;-55
2020/12/13 02:58:48;;;;;;;38.35;13.70;;;;;;;5.65;100.00;100325.60;1795546;80;21121;-55
2020/12/13 03:01:15;;;;;;;31.55;14.28;;;;;;;5.66;100.00;100327.35;1842057;77;21051;-56
2020/12/13 03:03:43;;;;;;;38.63;14.00;;;;;;;5.64;100.00;100322.09;1792495;80;21059;-56
2020/12/13 03:06:11;;;;;;;45.15;16.37;;;;;;;5.65;100.00;100323.84;1838903;78;21355;-55
2020/12/13 03:08:39;;;;;;;44.05;14.65;;;;;;;5.65;100.00;100318.52;1789488;80;21128;-55
2020/12/13 03:11:07;;;;;;;36.00;13.70;;;;;;;5.65;100.00;100331.81;1838895;78;21044;-56
2020/12/13 03:13:35;;;;;;;39.42;15.15;;;;;;;5.67;100.00;100327.77;1838856;78;21028;-55
2020/12/13 03:16:02;;;;;;;38.05;14.20;;;;;;;5.65;100.00;100322.50;1838919;78;21040;-55
2020/12/13 03:18:30;;;;;;;40.43;14.65;;;;;;;5.66;100.00;100308.30;1789596;80;21374;-55
2020/12/13 03:20:57;;;;;;;36.10;13.80;;;;;;;5.68;100.00;100318.45;1838861;78;21174;-55
2020/12/13 03:23:26;;;;;;;36.48;13.78;;;;;;;5.67;100.00;100332.66;1838802;78;21063;-55
2020/12/13 03:25:54;;;;;;;33.85;14.95;;;;;;;5.67;100.00;100313.14;1839010;78;21460;-55
2020/12/13 03:28:21;;;;;;;40.63;14.63;;;;;;;5.68;100.00;100309.57;1789725;80;21157;-56
2020/12/13 03:30:51;;;;;;;39.58;14.58;;;;;;;5.69;100.00;100309.55;1838994;78;21182;-55
2020/12/13 03:33:19;;;;;;;43.02;14.53;;;;;;;5.70;100.00;100333.91;1838779;78;21547;-55
2020/12/13 03:35:48;;;;;;;41.28;14.78;;;;;;;5.71;100.00;100329.45;1789635;79;21129;-55
2020/12/13 03:38:15;;;;;;;45.10;14.70;;;;;;;5.68;100.00;100343.72;1785898;80;21096;-55
2020/12/13 03:40:43;;;;;;;35.92;14.40;;;;;;;5.66;100.00;100332.67;1733989;82;21083;-57
2020/12/13 03:43:10;;;;;;;37.55;14.53;;;;;;;5.65;100.00;100317.19;1763965;81;22210;-55
2020/12/13 03:45:38;;;;;;;35.13;13.75;;;;;;;5.66;100.00;100318.94;1763997;81;21981;-56
2020/12/13 03:48:06;;;;;;;40.50;13.93;;;;;;;5.70;100.00;100324.60;1764045;81;21076;-55
2020/12/13 03:50:39;;;;;;;34.50;13.48;;;;;;;5.72;100.00;100324.55;1763969;81;21056;-55
2020/12/13 03:53:11;;;;;;;34.80;13.83;;;;;;;5.73;100.00;100321.87;1764100;81;21097;-55
2020/12/13 03:55:40;;;;;;;43.73;13.80;;;;;;;5.76;100.00;100307.64;1764018;81;21883;-55
2020/12/13 03:58:09;;;;;;;36.35;14.07;;;;;;;5.76;100.00;100314.73;1763305;81;21166;-56
2020/12/13 04:00:37;;;;;;;34.80;12.82;;;;;;;5.77;100.00;100325.79;1764019;81;21123;-56
2020/12/13 04:03:04;;;;;;;36.45;13.15;;;;;;;5.77;100.00;100324.02;1764662;81;21121;-55
2020/12/13 04:05:33;;;;;;;36.42;13.60;;;;;;;5.78;100.00;100328.43;1773317;81;21131;-54
2020/12/13 04:08:00;;;;;;;38.05;13.05;;;;;;;5.80;100.00;100333.70;1773201;81;21365;-55
2020/12/13 04:10:28;;;;;;;37.48;14.20;;;;;;;5.80;100.00;100335.92;1773220;81;21167;-58
2020/12/13 04:12:56;;;;;;;34.20;13.20;;;;;;;5.81;100.00;100339.44;1773230;81;21068;-55
2020/12/13 04:15:25;;;;;;;31.20;14.13;;;;;;;5.83;100.00;100342.94;1773373;81;21070;-55
2020/12/13 04:17:54;;;;;;;33.38;13.35;;;;;;;5.81;100.00;100350.08;1773230;81;21506;-55
2020/12/13 04:20:22;;;;;;;32.00;13.25;;;;;;;5.84;100.00;100346.02;1773289;81;21398;-55
2020/12/13 04:22:50;;;;;;;39.98;13.18;;;;;;;5.84;100.00;100367.30;1773149;81;21147;-56
2020/12/13 04:25:19;;;;;;;37.17;13.13;;;;;;;5.85;100.00;100357.08;1773323;81;21167;-55
2020/12/13 04:27:47;;;;;;;34.70;13.80;;;;;;;5.84;100.00;100355.33;1773194;81;21182;-56
2020/12/13 04:30:15;;;;;;;39.25;14.35;;;;;;;5.86;100.00;100358.86;1773305;81;21080;-56
2020/12/13 04:32:43;;;;;;;35.98;13.83;;;;;;;5.85;100.00;100373.94;1773258;81;21710;-56
2020/12/13 04:35:11;;;;;;;39.33;13.03;;;;;;;5.86;100.00;100350.88;1773208;81;21166;-55
2020/12/13 04:37:38;;;;;;;31.68;12.35;;;;;;;5.88;100.00;100346.40;1797460;79;21105;-55
2020/12/13 04:40:06;;;;;;;41.77;13.80;;;;;;;5.89;100.00;100350.81;1805596;79;21050;-56
2020/12/13 04:42:36;;;;;;;36.15;13.45;;;;;;;5.90;100.00;100358.32;1805627;79;21248;-56
2020/12/13 04:45:07;;;;;;;34.25;13.13;;;;;;;5.90;100.00;100356.55;1805522;79;21366;-56
2020/12/13 04:47:40;;;;;;;35.95;12.85;;;;;;;5.90;100.00;100359.66;1805553;79;21070;-56
2020/12/13 04:50:07;;;;;;;40.17;13.70;;;;;;;5.88;100.00;100348.59;1805525;79;21045;-56
2020/12/13 04:52:35;;;;;;;37.83;12.85;;;;;;;5.91;100.00;100341.00;1805594;79;21115;-56
2020/12/13 04:55:02;;;;;;;38.55;13.65;;;;;;;5.89;100.00;100353.47;1805528;79;21058;-56
2020/12/13 04:57:31;;;;;;;49.08;14.43;;;;;;;5.90;100.00;100352.56;1777151;79;21396;-56
2020/12/13 04:59:59;;;;;;;42.90;13.38;;;;;;;5.91;100.00;100354.75;1805505;79;21145;-56
2020/12/13 05:02:26;;;;;;;45.63;13.13;;;;;;;5.91;100.00;100362.73;1805518;79;20928;-56
2020/12/13 05:04:54;;;;;;;36.58;13.38;;;;;;;5.91;100.00;100351.65;1799865;79;21045;-55
2020/12/13 05:07:22;;;;;;;37.63;12.98;;;;;;;5.91;100.00;100346.33;1797630;79;21106;-55
2020/12/13 05:09:52;;;;;;;29.32;12.88;;;;;;;5.91;100.00;100375.59;1797688;79;21212;-55
2020/12/13 05:12:24;;;;;;;40.00;12.90;;;;;;;5.92;100.00;100365.81;1797577;79;21090;-56
2020/12/13 05:14:51;;;;;;;37.48;13.40;;;;;;;5.91;100.00;100383.58;1797756;79;21118;-55
2020/12/13 05:17:19;;;;;;;49.38;12.98;;;;;;;5.90;100.00;100359.66;1797597;79;21130;-56
2020/12/13 05:19:49;;;;;;;36.48;12.73;;;;;;;5.90;100.00;100363.20;1797673;79;21057;-55
2020/12/13 05:22:21;;;;;;;38.48;13.83;;;;;;;5.89;100.00;100382.73;1797697;79;21375;-55
2020/12/13 05:24:49;;;;;;;34.23;12.68;;;;;;;5.88;100.00;100358.38;1797697;79;21581;-55
2020/12/13 05:27:23;;;;;;;33.63;12.33;;;;;;;5.87;100.00;100358.81;1797591;79;20932;-56
2020/12/13 05:29:53;;;;;;;41.18;13.08;;;;;;;5.88;100.00;100363.22;1797622;79;21161;-55
2020/12/13 05:32:23;;;;;;;34.92;12.80;;;;;;;5.88;100.00;100363.70;1797616;79;21208;-55
2020/12/13 05:34:51;;;;;;;39.50;13.45;;;;;;;5.89;100.00;100372.09;1797627;79;21148;-55
2020/12/13 05:37:19;;;;;;;42.80;13.48;;;;;;;5.92;100.00;100365.38;1778101;79;21169;-55
2020/12/13 05:39:52;;;;;;;37.20;13.38;;;;;;;5.94;100.00;100375.97;1766096;81;21084;-56
2020/12/13 05:42:39;;;;;;;39.90;13.08;;;;;;;5.94;100.00;100382.18;1765694;81;21161;-55
2020/12/13 05:45:15;;;;;;;43.63;12.80;;;;;;;5.94;100.00;100383.95;1766257;81;21128;-55
2020/12/13 05:50:24;;;;;;;41.45;13.98;;;;;;;5.93;100.00;100375.11;1766204;81;21153;-55
2020/12/13 05:52:43;;;;;;;38.50;12.35;;;;;;;5.95;100.00;100379.94;1763468;81;21156;-55
2020/12/13 05:55:11;;;;;;;38.38;12.50;;;;;;;5.98;100.00;100383.00;1766117;81;21102;-55
2020/12/13 05:57:38;;;;;;;35.50;13.78;;;;;;;5.97;100.00;100388.76;1766069;81;21125;-55
2020/12/13 06:00:07;;;;;;;37.98;13.48;;;;;;;5.95;100.00;100390.58;1766198;81;21514;-55
2020/12/13 06:02:37;;;;;;;42.73;13.98;;;;;;;5.93;100.00;100386.19;1765649;81;21074;-55
2020/12/13 06:05:08;;;;;;;41.15;13.90;;;;;;;5.91;100.00;100387.58;1770644;80;21074;-56
2020/12/13 06:07:36;;;;;;;42.83;13.60;;;;;;;5.91;100.00;100382.25;1773720;80;21061;-56
2020/12/13 06:10:06;;;;;;;39.15;12.65;;;;;;;5.92;100.00;100393.31;1744169;80;21054;-55
2020/12/13 06:12:33;;;;;;;38.20;13.30;;;;;;;5.93;100.00;100397.72;1773813;80;21584;-55
2020/12/13 06:15:01;;;;;;;36.58;12.40;;;;;;;5.93;100.00;100408.37;1773614;80;21129;-55
2020/12/13 06:17:29;;;;;;;33.92;13.15;;;;;;;5.97;100.00;100403.87;1773760;80;21129;-55
2020/12/13 06:19:57;;;;;;;35.70;13.70;;;;;;;5.95;100.00;100403.89;1773990;80;21108;-55
2020/12/13 06:22:24;;;;;;;42.62;13.30;;;;;;;5.96;100.00;100405.64;1798506;79;21094;-56
2020/12/13 06:24:52;;;;;;;39.90;13.25;;;;;;;5.97;100.00;100404.73;1774080;80;21696;-55
2020/12/13 06:27:21;;;;;;;37.30;13.10;;;;;;;5.99;100.00;100406.03;1742319;79;21117;-56
2020/12/13 06:29:48;;;;;;;41.65;13.58;;;;;;;5.99;100.00;100416.21;1783217;79;21042;-55
2020/12/13 06:32:16;;;;;;;45.03;14.13;;;;;;;6.00;100.00;100412.64;1798627;79;21070;-55
2020/12/13 06:34:44;;;;;;;36.17;13.43;;;;;;;5.99;100.00;100399.38;1774084;80;21120;-56
2020/12/13 06:37:12;;;;;;;39.35;13.88;;;;;;;5.97;100.00;100400.73;1798475;79;21553;-56
2020/12/13 06:39:43;;;;;;;38.92;12.65;;;;;;;5.95;100.00;100407.88;1773739;80;21167;-55
2020/12/13 06:42:13;;;;;;;38.50;12.95;;;;;;;5.95;100.00;100413.20;1697680;80;21107;-55
2020/12/13 06:44:40;;;;;;;47.33;13.88;;;;;;;5.95;100.00;100414.53;1773834;80;21163;-55
2020/12/13 06:47:24;;;;;;;37.10;13.08;;;;;;;5.95;100.00;100417.19;1773922;80;21059;-56
2020/12/13 06:49:51;;;;;;;37.53;13.58;;;;;;;5.95;100.00;100402.56;1774043;80;22213;-56
2020/12/13 06:52:32;;;;;;;40.50;13.15;;;;;;;5.97;100.00;100398.55;1773910;80;21567;-57
2020/12/13 06:55:00;;;;;;;37.95;13.22;;;;;;;5.99;100.00;100400.72;1774025;80;21556;-55
2020/12/13 06:57:33;;;;;;;41.80;14.58;;;;;;;6.02;100.00;100415.31;1773838;80;21183;-56
2020/12/13 07:00:06;;;;;;;37.67;13.72;;;;;;;6.04;100.00;100412.61;1773945;80;21095;-57
2020/12/13 07:02:56;;;;;;;35.30;12.43;;;;;;;6.04;100.00;100421.92;1773939;80;21451;-56
2020/12/13 07:05:48;;;;;;;43.98;13.88;;;;;;;6.04;100.00;100419.25;1770375;80;21587;-57
2020/12/13 07:08:21;;;;;;;38.80;13.40;;;;;;;6.01;100.00;100434.38;1819445;78;21051;-57
2020/12/13 07:10:51;;;;;;;44.75;12.65;;;;;;;5.99;100.00;100432.18;1839700;78;21146;-55
2020/12/13 07:13:25;;;;;;;38.53;12.88;;;;;;;5.99;100.00;100426.86;1815019;78;21087;-56
2020/12/13 07:15:59;;;;;;;36.93;13.03;;;;;;;5.97;100.00;100434.00;1839816;78;21489;-58
2020/12/13 07:18:23;;;;;;;33.67;12.25;;;;;;;5.98;100.00;100430.42;1839291;77;20984;-56
2020/12/13 07:20:50;;;;;;;39.05;12.43;;;;;;;5.95;100.00;100426.50;1768642;80;21153;-56
2020/12/13 07:23:18;;;;;;;34.65;12.68;;;;;;;5.94;100.00;100436.73;1839715;77;21137;-56
2020/12/13 07:25:46;;;;;;;37.85;12.70;;;;;;;5.93;100.00;100446.06;1768745;81;21078;-55
2020/12/13 07:28:13;;;;;;;31.60;11.88;;;;;;;5.93;100.00;100423.44;1839726;77;21329;-56
2020/12/13 07:30:41;;;;;;;33.30;12.98;;;;;;;5.92;100.00;100430.56;1768613;81;21105;-55
2020/12/13 07:33:09;;;;;;;40.28;12.43;;;;;;;5.91;100.00;100434.14;1839750;78;20988;-57
2020/12/13 07:35:36;;;;;;;39.35;12.75;;;;;;;5.89;100.00;100438.62;1768653;81;21055;-56
2020/12/13 07:38:04;;;;;;;34.20;12.73;;;;;;;5.90;100.00;100444.36;1829166;78;21072;-55
2020/12/13 07:40:32;;;;;;;34.33;11.50;;;;;;;5.92;100.00;100441.21;1795830;79;21390;-55
2020/12/13 07:43:01;;;;;;;33.55;12.13;;;;;;;5.91;100.00;100444.78;1828148;78;21141;-56
2020/12/13 07:45:29;;;;;;;34.30;12.90;;;;;;;5.90;100.00;100451.02;1794160;80;21565;-56
2020/12/13 07:48:05;;;;;;;37.48;11.78;;;;;;;5.88;100.00;100432.41;1828290;78;21066;-55
2020/12/13 07:50:47;;;;;;;34.05;11.90;;;;;;;5.88;100.00;100455.48;1828339;78;20967;-56
2020/12/13 07:53:25;;;;;;;35.78;12.60;;;;;;;5.86;100.00;100439.55;1828443;78;21358;-56
2020/12/13 07:55:53;;;;;;;37.55;11.88;;;;;;;5.86;100.00;100428.04;1828340;78;21506;-56
2020/12/13 07:58:21;;;;;;;32.73;10.93;;;;;;;5.85;100.00;100424.92;1828330;78;21102;-56
2020/12/13 08:00:49;;;;;;;38.75;12.55;;;;;;;5.85;100.00;100427.15;1828238;78;20931;-56
2020/12/13 08:03:17;;;;;;;35.52;11.97;;;;;;;5.84;100.00;100428.06;1828361;78;21118;-56
2020/12/13 08:05:44;;;;;;;39.45;12.20;;;;;;;5.83;100.00;100435.62;1826046;78;21375;-56
2020/12/13 08:08:12;;;;;;;37.00;11.93;;;;;;;5.82;100.00;100426.33;1825103;78;21137;-55
2020/12/13 08:10:39;;;;;;;27.30;11.43;;;;;;;5.82;100.00;100437.86;1825153;78;21102;-56
2020/12/13 08:13:07;;;;;;;43.33;13.30;;;;;;;5.80;100.00;100433.03;1825040;78;21054;-56
2020/12/13 08:15:35;;;;;;;37.20;12.50;;;;;;;5.77;100.00;100429.11;1825105;78;21042;-56
2020/12/13 08:18:07;;;;;;;32.13;11.35;;;;;;;5.77;100.00;100423.78;1825117;78;21361;-56
2020/12/13 08:20:44;;;;;;;33.63;11.73;;;;;;;5.76;100.00;100423.36;1825057;78;21074;-56
2020/12/13 08:23:12;;;;;;;34.75;11.73;;;;;;;5.73;100.00;100423.39;1825117;78;21106;-55
2020/12/13 08:25:39;;;;;;;35.48;13.15;;;;;;;5.73;100.00;100419.41;1825096;78;21101;-55
2020/12/13 08:28:07;;;;;;;39.27;12.78;;;;;;;5.76;100.00;100410.50;1825061;78;21062;-55
2020/12/13 08:30:34;;;;;;;36.25;12.53;;;;;;;5.78;100.00;100414.89;1825104;78;21355;-55
2020/12/13 08:33:05;;;;;;;29.67;11.60;;;;;;;5.82;100.00;100415.69;1824980;78;21148;-56
2020/12/13 08:35:32;;;;;;;38.45;11.78;;;;;;;5.82;100.00;100426.33;1771088;78;21176;-55
2020/12/13 08:38:01;;;;;;;30.17;11.90;;;;;;;5.79;100.00;100419.73;1764232;78;21130;-55
2020/12/13 08:40:41;;;;;;;32.08;12.37;;;;;;;5.80;100.00;100417.50;1779894;80;21122;-56
2020/12/13 08:43:10;;;;;;;31.75;11.78;;;;;;;5.79;100.00;100427.72;1779820;80;21388;-55
2020/12/13 08:45:38;;;;;;;34.48;12.07;;;;;;;5.79;100.00;100413.98;1757224;81;21193;-56
2020/12/13 08:48:07;;;;;;;31.02;12.03;;;;;;;5.79;100.00;100412.66;1779595;80;21153;-57
2020/12/13 08:50:41;;;;;;;38.83;12.35;;;;;;;5.79;100.00;100402.45;1757174;81;21063;-56
2020/12/13 08:53:23;;;;;;;27.22;10.45;;;;;;;5.85;100.00;100412.95;1779919;80;21212;-56
2020/12/13 08:56:09;;;;;;;37.40;12.47;;;;;;;5.85;100.00;100412.95;1757205;81;21197;-56
2020/12/13 08:58:52;;;;;;;34.35;12.50;;;;;;;5.84;100.00;100407.22;1779672;80;21082;-55
2020/12/13 09:01:25;;;;;;;38.53;12.47;;;;;;;5.83;100.00;100401.47;1779918;80;21559;-56
2020/12/13 09:03:54;;;;;;;37.23;11.55;;;;;;;5.83;100.00;100397.48;1779751;79;21067;-55
2020/12/13 09:06:33;;;;;;;41.42;13.80;;;;;;;5.85;100.00;100412.95;1782312;80;21114;-55
2020/12/13 09:09:09;;;;;;;32.05;11.38;;;;;;;5.84;100.00;100401.89;1783067;80;21211;-56
2020/12/13 09:11:37;;;;;;;40.10;13.40;;;;;;;5.84;100.00;100408.55;1759905;81;21090;-56
2020/12/13 09:14:04;;;;;;;37.98;12.00;;;;;;;5.82;100.00;100399.28;1774624;80;21055;-56
2020/12/13 09:16:33;;;;;;;32.03;12.37;;;;;;;5.82;100.00;100405.04;1760451;81;21202;-56
2020/12/13 09:19:06;;;;;;;39.80;12.20;;;;;;;5.85;100.00;100412.52;1774559;80;21132;-56
2020/12/13 09:21:58;;;;;;;38.55;12.73;;;;;;;5.85;100.00;100400.98;1760474;81;21381;-55
2020/12/13 09:24:32;;;;;;;37.58;11.63;;;;;;;5.86;100.00;100404.09;1774524;80;21111;-56
2020/12/13 09:27:08;;;;;;;38.70;13.28;;;;;;;5.86;100.00;100411.61;1760390;81;21144;-56
2020/12/13 09:29:37;;;;;;;39.85;13.35;;;;;;;5.84;100.00;100406.77;1774673;80;21176;-56
2020/12/13 09:32:04;;;;;;;39.13;13.50;;;;;;;5.85;100.00;100400.98;1760401;81;21112;-56
2020/12/13 09:34:32;;;;;;;37.10;12.45;;;;;;;5.88;100.00;100407.59;1774627;80;21133;-55
2020/12/13 09:36:59;;;;;;;36.20;13.30;;;;;;;5.90;100.00;100409.77;1775730;80;21117;-57
2020/12/13 09:39:30;;;;;;;34.08;11.43;;;;;;;5.90;100.00;100416.86;1811745;79;21179;-56
2020/12/13 09:41:58;;;;;;;43.13;13.05;;;;;;;5.91;100.00;100404.87;1805584;79;21072;-56
2020/12/13 09:44:26;;;;;;;31.90;12.00;;;;;;;5.91;100.00;100395.55;1805454;79;21047;-57
2020/12/13 09:46:55;;;;;;;31.85;11.30;;;;;;;5.93;100.00;100392.41;1805518;79;21471;-57
2020/12/13 09:49:25;;;;;;;34.60;11.70;;;;;;;5.95;100.00;100385.26;1805539;79;21498;-56
2020/12/13 09:51:58;;;;;;;33.95;12.30;;;;;;;5.97;100.00;100379.92;1805669;79;21606;-57
2020/12/13 09:54:27;;;;;;;35.73;12.20;;;;;;;5.96;100.00;100391.44;1801641;79;21658;-57
2020/12/13 09:56:54;;;;;;;39.35;12.68;;;;;;;5.98;100.00;100382.52;1805578;79;21103;-57
2020/12/13 09:59:22;;;;;;;37.60;13.50;;;;;;;6.01;100.00;100378.97;1805449;79;21767;-56
2020/12/13 10:01:49;;;;;;;35.03;12.03;;;;;;;6.02;100.00;100376.25;1805450;79;21115;-56
2020/12/13 10:04:19;;;;;;;39.13;12.70;;;;;;;6.05;100.00;100384.64;1805500;79;21135;-56
2020/12/13 10:09:21;;;;;;;38.85;12.28;;;;;;;6.00;100.00;100380.70;1803980;79;21114;-56
2020/12/13 10:11:49;;;;;;;45.90;13.72;;;;;;;6.00;100.00;100372.72;1803771;79;21364;-58
2020/12/13 10:14:16;;;;;;;35.98;12.53;;;;;;;6.01;100.00;100369.66;1803836;79;21055;-57
2020/12/13 10:16:44;;;;;;;43.45;13.15;;;;;;;6.00;100.00;100374.52;1806075;79;21053;-57
2020/12/13 10:19:12;;;;;;;35.80;11.57;;;;;;;6.00;100.00;100375.85;1806096;79;21114;-56
2020/12/13 10:21:39;;;;;;;37.25;12.58;;;;;;;6.02;100.00;100368.74;1806132;79;21135;-56
2020/12/13 10:24:07;;;;;;;34.23;11.83;;;;;;;6.01;100.00;100357.67;1806097;79;21359;-55
2020/12/13 10:26:37;;;;;;;41.35;12.70;;;;;;;5.99;100.00;100355.00;1806017;79;21043;-56
2020/12/13 10:29:06;;;;;;;39.13;13.00;;;;;;;6.00;100.00;100369.20;1806158;79;21178;-56
2020/12/13 10:31:38;;;;;;;33.60;12.00;;;;;;;5.99;100.00;100375.44;1806082;79;21112;-56
2020/12/13 10:34:07;;;;;;;38.92;12.60;;;;;;;5.96;100.00;100397.66;1806237;79;21104;-56
2020/12/13 10:36:37;;;;;;;37.30;13.05;;;;;;;5.94;100.00;100390.16;1796013;79;21485;-56
2020/12/13 10:39:06;;;;;;;38.13;12.70;;;;;;;5.95;100.00;100381.70;1793064;80;20923;-57
2020/12/13 10:41:33;;;;;;;31.87;11.57;;;;;;;5.97;100.00;100386.09;1765259;81;21058;-57
2020/12/13 10:44:01;;;;;;;35.68;11.78;;;;;;;5.99;100.00;100378.95;1793113;79;21113;-56
2020/12/13 10:46:28;;;;;;;40.78;14.38;;;;;;;6.02;100.00;100370.93;1765324;81;21165;-57
2020/12/13 10:48:56;;;;;;;33.30;12.88;;;;;;;6.03;100.00;100367.83;1795585;79;21374;-56
2020/12/13 10:51:24;;;;;;;36.68;11.65;;;;;;;6.05;100.00;100362.02;1765270;81;21070;-57
2020/12/13 10:53:52;;;;;;;33.40;12.50;;;;;;;6.06;100.00;100369.53;1793129;80;21109;-57
2020/12/13 10:56:20;;;;;;;34.08;12.93;;;;;;;6.06;100.00;100374.84;1765292;81;21153;-57
2020/12/13 10:58:47;;;;;;;40.52;13.32;;;;;;;6.08;100.00;100366.37;1793125;80;21038;-58
2020/12/13 11:01:15;;;;;;;37.13;13.03;;;;;;;6.06;100.00;100363.77;1765288;81;21213;-57
2020/12/13 11:03:43;;;;;;;36.60;12.55;;;;;;;6.05;100.00;100366.45;1793197;80;21423;-57
2020/12/13 11:06:10;;;;;;;42.35;12.73;;;;;;;6.02;100.00;100367.41;1757913;81;21538;-57
2020/12/13 11:08:38;;;;;;;39.67;12.93;;;;;;;5.99;100.00;100365.65;1762363;81;21162;-56
2020/12/13 11:11:06;;;;;;;36.98;12.45;;;;;;;5.99;100.00;100365.65;1754043;81;21126;-57
2020/12/13 11:13:34;;;;;;;36.17;12.82;;;;;;;5.98;100.00;100364.38;1754134;81;21364;-56
2020/12/13 11:16:01;;;;;;;35.13;12.05;;;;;;;5.99;100.00;100354.14;1754071;81;21153;-57
2020/12/13 11:18:33;;;;;;;33.98;12.58;;;;;;;5.96;100.00;100353.75;1762452;80;21011;-58
2020/12/13 11:21:02;;;;;;;33.98;11.97;;;;;;;5.96;100.00;100352.41;1754052;81;21168;-57
2020/12/13 11:23:31;;;;;;;37.63;12.70;;;;;;;5.96;100.00;100377.70;1701777;81;21118;-56